Time;durP1;ratioP1;P1;durP2;ratioP2;P2;SDS_P1;SDS_P2;PMS_P1;PMS_P2;Temp;Humidity;BMP_temperature;BMP_pressure;BME280_temperature;BME280_humidity;BME280_pressure;Samples;Min_cycle;Max_cycle;Signal;HPM_P1;HPM_P2
2022/08/26 00:01:29;;;;;;;25.77;5.85;;;;;;;;;;4407253;32;20603;-86
2022/08/26 00:03:57;;;;;;;21.52;6.00;;;;;;;;;;4405572;32;20665;-87
2022/08/26 00:06:24;;;;;;;22.83;4.68;;;;;;;;;;4405775;32;20542;-84
2022/08/26 00:08:54;;;;;;;21.62;4.82;;;;;;;;;;4404872;32;20637;-84
2022/08/26 00:11:21;;;;;;;24.25;5.47;;;;;;;;;;4405667;32;20322;-84
2022/08/26 00:13:49;;;;;;;33.65;5.68;;;;;;;;;;4405989;32;20566;-84
2022/08/26 00:16:17;;;;;;;30.90;5.55;;;;;;;;;;4405629;32;20273;-84
2022/08/26 00:18:45;;;;;;;17.85;5.47;;;;;;;;;;4407146;32;20695;-86
2022/08/26 00:21:12;;;;;;;23.92;5.47;;;;;;;;;;4405728;32;20197;-86
2022/08/26 00:23:40;;;;;;;32.70;5.97;;;;;;;;;;4405589;32;20406;-87
2022/08/26 00:26:09;;;;;;;22.55;6.28;;;;;;;;;;4405626;32;20599;-86
2022/08/26 00:28:37;;;;;;;23.65;6.43;;;;;;;;;;4405580;32;20642;-86
2022/08/26 00:31:04;;;;;;;25.42;4.75;;;;;;;;;;4405285;32;20587;-86
2022/08/26 00:33:32;;;;;;;27.30;5.57;;;;;;;;;;4405671;32;20732;-86
2022/08/26 00:36:00;;;;;;;22.23;3.83;;;;;;;;;;4405028;32;20605;-86
2022/08/26 00:38:28;;;;;;;19.10;4.93;;;;;;;;;;4405336;32;20505;-86
2022/08/26 00:40:57;;;;;;;22.35;4.95;;;;;;;;;;4405236;32;20507;-86
2022/08/26 00:43:26;;;;;;;22.10;4.45;;;;;;;;;;4405597;32;20534;-86
2022/08/26 00:45:59;;;;;;;16.70;4.22;;;;;;;;;;4405713;32;20598;-86
2022/08/26 00:48:30;;;;;;;22.83;4.05;;;;;;;;;;4405298;32;20654;-86
2022/08/26 00:51:00;;;;;;;32.38;4.68;;;;;;;;;;4405249;32;20201;-87
2022/08/26 00:53:31;;;;;;;16.83;4.93;;;;;;;;;;4405133;32;20358;-86
2022/08/26 00:56:03;;;;;;;27.17;5.97;;;;;;;;;;4405277;32;20649;-86
2022/08/26 00:58:33;;;;;;;37.22;6.00;;;;;;;;;;4404974;32;20221;-86
2022/08/26 01:01:01;;;;;;;23.58;6.00;;;;;;;;;;4404935;32;20538;-86
2022/08/26 01:03:33;;;;;;;26.30;5.72;;;;;;;;;;4404915;32;20556;-86
2022/08/26 01:06:02;;;;;;;19.90;5.57;;;;;;;;;;4404828;32;20221;-86
2022/08/26 01:08:30;;;;;;;16.20;4.30;;;;;;;;;;4404682;32;20550;-86
2022/08/26 01:11:00;;;;;;;24.90;4.47;;;;;;;;;;4404830;32;20282;-87
2022/08/26 01:13:29;;;;;;;26.52;5.35;;;;;;;;;;4404918;32;20573;-86
2022/08/26 01:16:02;;;;;;;27.92;4.53;;;;;;;;;;4404505;32;20336;-86
2022/08/26 01:18:30;;;;;;;26.35;5.05;;;;;;;;;;4404900;32;20222;-86
2022/08/26 01:21:05;;;;;;;32.97;5.45;;;;;;;;;;4404251;32;20568;-86
2022/08/26 01:23:37;;;;;;;28.38;5.07;;;;;;;;;;4405098;32;20641;-86
2022/08/26 01:26:08;;;;;;;35.45;5.55;;;;;;;;;;4404359;32;20336;-86
2022/08/26 01:28:37;;;;;;;24.67;4.87;;;;;;;;;;4404424;32;20661;-87
2022/08/26 01:31:07;;;;;;;28.55;4.45;;;;;;;;;;4404417;32;20591;-86
2022/08/26 01:33:40;;;;;;;20.52;5.70;;;;;;;;;;4404671;32;20260;-86
2022/08/26 01:36:08;;;;;;;26.02;5.05;;;;;;;;;;4404905;32;20245;-86
2022/08/26 01:38:38;;;;;;;29.63;5.87;;;;;;;;;;4404318;32;20586;-86
2022/08/26 01:41:06;;;;;;;22.58;5.78;;;;;;;;;;4404417;32;20526;-86
2022/08/26 01:43:37;;;;;;;19.00;6.12;;;;;;;;;;4404678;32;20590;-86
2022/08/26 01:46:06;;;;;;;23.23;4.32;;;;;;;;;;4404577;32;20300;-86
2022/08/26 01:48:36;;;;;;;24.37;5.62;;;;;;;;;;4404415;32;20646;-85
2022/08/26 01:51:05;;;;;;;20.30;4.72;;;;;;;;;;4404162;32;20628;-86
2022/08/26 01:53:33;;;;;;;29.12;5.55;;;;;;;;;;4404159;32;20332;-86
2022/08/26 01:56:03;;;;;;;16.80;5.07;;;;;;;;;;4404045;32;20542;-86
2022/08/26 01:58:35;;;;;;;23.08;4.95;;;;;;;;;;4404094;32;20387;-86
2022/08/26 02:01:03;;;;;;;22.23;4.75;;;;;;;;;;4404422;32;20538;-86
2022/08/26 02:03:31;;;;;;;31.75;5.40;;;;;;;;;;4404206;32;20645;-86
2022/08/26 02:06:02;;;;;;;21.95;6.37;;;;;;;;;;4404154;32;20629;-86
2022/08/26 02:08:35;;;;;;;22.75;4.95;;;;;;;;;;4404220;32;20610;-86
2022/08/26 02:11:05;;;;;;;30.37;5.05;;;;;;;;;;4404412;32;20651;-86
2022/08/26 02:13:38;;;;;;;31.73;5.10;;;;;;;;;;4403730;32;20621;-86
2022/08/26 02:16:07;;;;;;;22.58;4.55;;;;;;;;;;4404091;32;20279;-86
2022/08/26 02:18:37;;;;;;;16.27;4.62;;;;;;;;;;4404019;32;20562;-86
2022/08/26 02:21:05;;;;;;;25.05;4.97;;;;;;;;;;4414115;32;20189;-86
2022/08/26 02:26:14;;;;;;;37.92;5.10;;;;;;;;;;3736717;27;20205;-86
2022/08/26 02:28:49;;;;;;;21.17;4.32;;;;;;;;;;4427382;32;20194;-84
2022/08/26 02:31:18;;;;;;;26.10;5.70;;;;;;;;;;4429088;32;20266;-86
2022/08/26 02:33:46;;;;;;;33.10;5.60;;;;;;;;;;4425633;32;20518;-86
2022/08/26 02:36:18;;;;;;;20.15;4.82;;;;;;;;;;4422398;32;20680;-86
2022/08/26 02:38:47;;;;;;;23.02;4.18;;;;;;;;;;4422704;32;20555;-86
2022/08/26 02:41:16;;;;;;;25.55;6.12;;;;;;;;;;4424167;32;20557;-86
2022/08/26 02:43:44;;;;;;;21.75;5.18;;;;;;;;;;4425653;32;20289;-86
2022/08/26 02:46:12;;;;;;;27.37;5.75;;;;;;;;;;4424877;32;20550;-86
2022/08/26 02:48:39;;;;;;;32.47;5.25;;;;;;;;;;4424704;32;20689;-86
2022/08/26 02:51:07;;;;;;;23.02;6.00;;;;;;;;;;4424405;32;20570;-84
2022/08/26 02:53:35;;;;;;;30.33;4.87;;;;;;;;;;4423272;32;20475;-86
2022/08/26 02:56:03;;;;;;;30.42;5.65;;;;;;;;;;4423792;32;20585;-86
2022/08/26 02:58:32;;;;;;;41.30;6.37;;;;;;;;;;4422973;32;20550;-86
2022/08/26 03:01:00;;;;;;;18.08;4.85;;;;;;;;;;4421985;32;20306;-86
2022/08/26 03:03:28;;;;;;;20.23;6.28;;;;;;;;;;4421896;32;20562;-86
2022/08/26 03:05:56;;;;;;;34.38;5.78;;;;;;;;;;4421886;32;20578;-86
2022/08/26 03:08:26;;;;;;;18.58;5.28;;;;;;;;;;4421922;32;20201;-86
2022/08/26 03:10:53;;;;;;;25.23;5.62;;;;;;;;;;4421751;32;20542;-86
2022/08/26 03:13:21;;;;;;;32.58;5.40;;;;;;;;;;4422041;32;20618;-86
2022/08/26 03:15:50;;;;;;;19.77;5.30;;;;;;;;;;4421811;32;20562;-86
2022/08/26 03:18:18;;;;;;;40.28;5.85;;;;;;;;;;4421610;32;20296;-86
2022/08/26 03:20:46;;;;;;;13.60;3.85;;;;;;;;;;4421586;32;20601;-86
2022/08/26 03:23:14;;;;;;;16.40;4.15;;;;;;;;;;4421561;32;20641;-86
2022/08/26 03:25:41;;;;;;;28.60;6.00;;;;;;;;;;4421327;32;20232;-86
2022/08/26 03:28:09;;;;;;;14.87;5.45;;;;;;;;;;4421616;32;20562;-86
2022/08/26 03:30:41;;;;;;;17.35;5.60;;;;;;;;;;4421703;32;20549;-86
2022/08/26 03:33:10;;;;;;;20.58;4.78;;;;;;;;;;4421188;32;20622;-86
2022/08/26 03:35:39;;;;;;;27.00;5.22;;;;;;;;;;4421197;32;20273;-86
2022/08/26 03:38:08;;;;;;;24.42;6.03;;;;;;;;;;4421083;32;20640;-86
2022/08/26 03:40:37;;;;;;;32.17;5.70;;;;;;;;;;4421624;32;20489;-86
2022/08/26 03:43:06;;;;;;;22.80;5.28;;;;;;;;;;4421189;32;20565;-86
2022/08/26 03:45:34;;;;;;;24.92;5.40;;;;;;;;;;4421067;32;20206;-86
2022/08/26 03:48:01;;;;;;;22.73;5.25;;;;;;;;;;4421442;32;20640;-86
2022/08/26 03:50:30;;;;;;;17.42;6.30;;;;;;;;;;4421149;32;20292;-86
2022/08/26 03:52:58;;;;;;;20.23;4.68;;;;;;;;;;4421092;32;20335;-86
2022/08/26 03:55:29;;;;;;;27.08;5.65;;;;;;;;;;4421099;32;20209;-86
2022/08/26 03:57:57;;;;;;;19.52;5.72;;;;;;;;;;4421131;32;20623;-83
2022/08/26 04:00:25;;;;;;;19.42;4.93;;;;;;;;;;4420923;32;20554;-85
2022/08/26 04:02:52;;;;;;;21.42;6.35;;;;;;;;;;4420805;32;20565;-85
2022/08/26 04:05:22;;;;;;;25.42;5.65;;;;;;;;;;4421298;32;20614;-84
2022/08/26 04:07:51;;;;;;;33.88;5.65;;;;;;;;;;4420799;32;20638;-84
2022/08/26 04:10:22;;;;;;;30.33;6.30;;;;;;;;;;4420542;32;20667;-84
2022/08/26 04:12:51;;;;;;;29.70;5.43;;;;;;;;;;4421075;32;20247;-84
2022/08/26 04:15:19;;;;;;;16.62;5.12;;;;;;;;;;4421089;32;20597;-83
2022/08/26 04:17:46;;;;;;;32.17;6.90;;;;;;;;;;4420668;32;20297;-84
2022/08/26 04:20:16;;;;;;;28.65;6.25;;;;;;;;;;4420935;32;20534;-84
2022/08/26 04:22:45;;;;;;;21.73;6.00;;;;;;;;;;4420654;32;20573;-85
2022/08/26 04:25:14;;;;;;;29.40;6.05;;;;;;;;;;4420442;32;20629;-86
2022/08/26 04:27:41;;;;;;;26.80;5.35;;;;;;;;;;4421067;32;20453;-86
2022/08/26 04:30:10;;;;;;;37.05;5.78;;;;;;;;;;4420422;32;20562;-84
2022/08/26 04:32:38;;;;;;;32.53;6.05;;;;;;;;;;4420412;32;20539;-85
2022/08/26 04:35:06;;;;;;;30.60;5.85;;;;;;;;;;4420635;32;20259;-85
2022/08/26 04:37:34;;;;;;;21.58;6.00;;;;;;;;;;4420418;32;20623;-85
2022/08/26 04:40:01;;;;;;;31.08;6.12;;;;;;;;;;4421370;32;20590;-85
2022/08/26 04:42:32;;;;;;;19.62;5.97;;;;;;;;;;4422513;32;20279;-90
2022/08/26 04:45:00;;;;;;;26.55;6.35;;;;;;;;;;4423679;32;20209;-90
2022/08/26 04:47:36;;;;;;;21.23;6.03;;;;;;;;;;4420705;32;20311;-89
2022/08/26 04:50:06;;;;;;;33.58;9.10;;;;;;;;;;4420998;32;20541;-89
2022/08/26 04:52:34;;;;;;;34.92;6.55;;;;;;;;;;4420407;32;20612;-89
2022/08/26 04:55:01;;;;;;;34.45;6.95;;;;;;;;;;4420210;32;20689;-90
2022/08/26 04:57:32;;;;;;;41.25;6.45;;;;;;;;;;4420538;32;20589;-88
2022/08/26 05:00:01;;;;;;;21.02;6.60;;;;;;;;;;4420611;32;20576;-88
2022/08/26 05:02:30;;;;;;;23.85;6.97;;;;;;;;;;4420034;32;20683;-88
2022/08/26 05:04:57;;;;;;;40.47;6.18;;;;;;;;;;4420376;32;20580;-88
2022/08/26 05:07:25;;;;;;;24.95;6.78;;;;;;;;;;4420429;32;20664;-89
2022/08/26 05:09:52;;;;;;;31.00;7.00;;;;;;;;;;4419962;32;20561;-89
2022/08/26 05:12:20;;;;;;;36.55;6.28;;;;;;;;;;4420149;32;20243;-86
2022/08/26 05:14:49;;;;;;;24.67;6.47;;;;;;;;;;4420278;32;20557;-86
2022/08/26 05:17:17;;;;;;;36.83;6.40;;;;;;;;;;4420535;32;20543;-87
2022/08/26 05:19:44;;;;;;;23.45;6.18;;;;;;;;;;4419970;32;20612;-86
2022/08/26 05:22:12;;;;;;;29.98;7.22;;;;;;;;;;4419881;32;20407;-86
2022/08/26 05:24:39;;;;;;;40.53;7.45;;;;;;;;;;4419980;32;20748;-86
2022/08/26 05:27:07;;;;;;;34.30;8.10;;;;;;;;;;4420251;32;20639;-87
2022/08/26 05:29:35;;;;;;;30.48;7.50;;;;;;;;;;4420052;32;20656;-84
2022/08/26 05:32:04;;;;;;;29.73;6.07;;;;;;;;;;4419630;32;20237;-85
2022/08/26 05:34:32;;;;;;;39.83;7.75;;;;;;;;;;4419495;32;20653;-86
2022/08/26 05:37:00;;;;;;;33.92;7.75;;;;;;;;;;4420059;32;20346;-86
2022/08/26 05:39:27;;;;;;;31.77;6.93;;;;;;;;;;4420017;32;20553;-86
2022/08/26 05:41:55;;;;;;;40.67;9.05;;;;;;;;;;4419287;32;20661;-84
2022/08/26 05:44:23;;;;;;;34.03;6.45;;;;;;;;;;4420155;32;20273;-85
2022/08/26 05:46:51;;;;;;;41.25;6.97;;;;;;;;;;4419889;32;20688;-86
2022/08/26 05:49:20;;;;;;;37.50;8.23;;;;;;;;;;4419824;32;20549;-85
2022/08/26 05:51:48;;;;;;;41.20;9.95;;;;;;;;;;4419533;32;20229;-85
2022/08/26 05:54:15;;;;;;;54.25;12.37;;;;;;;;;;4419376;32;20582;-85
2022/08/26 05:56:43;;;;;;;39.58;9.52;;;;;;;;;;4419479;32;20704;-86
2022/08/26 05:59:14;;;;;;;28.00;10.18;;;;;;;;;;4419375;32;20268;-85
2022/08/26 06:01:42;;;;;;;33.75;9.90;;;;;;;;;;4419495;32;20589;-87
2022/08/26 06:04:10;;;;;;;41.63;10.63;;;;;;;;;;4419419;32;20597;-86
2022/08/26 06:06:40;;;;;;;50.53;11.10;;;;;;;;;;4419852;32;20547;-86
2022/08/26 06:09:09;;;;;;;30.08;11.25;;;;;;;;;;4419414;32;20571;-87
2022/08/26 06:11:37;;;;;;;34.10;10.18;;;;;;;;;;4419465;32;20550;-86
2022/08/26 06:14:07;;;;;;;43.92;11.45;;;;;;;;;;4419283;32;20333;-87
2022/08/26 06:16:38;;;;;;;38.45;11.12;;;;;;;;;;4420382;32;20347;-86
2022/08/26 06:19:07;;;;;;;38.08;11.65;;;;;;;;;;4419356;32;20527;-86
2022/08/26 06:21:37;;;;;;;39.00;10.70;;;;;;;;;;4419630;32;20629;-86
2022/08/26 06:26:56;;;;;;;32.92;10.85;;;;;;;;;;4420193;32;20294;-86
2022/08/26 06:29:25;;;;;;;35.70;6.95;;;;;;;;;;4420097;32;20295;-86
2022/08/26 06:31:53;;;;;;;35.58;7.45;;;;;;;;;;4419712;32;20726;-86
2022/08/26 06:34:21;;;;;;;37.92;8.63;;;;;;;;;;4426862;32;20253;-87
2022/08/26 06:36:49;;;;;;;32.45;7.60;;;;;;;;;;4434057;32;20240;-86
2022/08/26 06:39:19;;;;;;;33.00;8.70;;;;;;;;;;4432375;32;20526;-85
2022/08/26 06:41:47;;;;;;;33.22;7.97;;;;;;;;;;4432301;32;20669;-85
2022/08/26 06:44:16;;;;;;;34.67;7.82;;;;;;;;;;4430007;32;20226;-87
2022/08/26 06:46:44;;;;;;;39.92;8.25;;;;;;;;;;4419792;32;20575;-86
2022/08/26 06:49:12;;;;;;;32.05;7.47;;;;;;;;;;4419924;32;20527;-85
2022/08/26 06:51:41;;;;;;;44.75;9.20;;;;;;;;;;4419105;32;20665;-85
2022/08/26 06:54:10;;;;;;;27.67;8.82;;;;;;;;;;4418793;32;20593;-86
2022/08/26 06:56:41;;;;;;;37.80;7.87;;;;;;;;;;4418875;32;20582;-86
2022/08/26 06:59:10;;;;;;;32.92;8.18;;;;;;;;;;4419857;32;20595;-86
2022/08/26 07:01:43;;;;;;;29.02;8.13;;;;;;;;;;4418937;32;20326;-85
2022/08/26 07:04:13;;;;;;;41.50;9.85;;;;;;;;;;4405704;32;20615;-86
2022/08/26 07:06:45;;;;;;;32.72;7.53;;;;;;;;;;4423709;32;20248;-85
2022/08/26 07:09:13;;;;;;;30.10;9.02;;;;;;;;;;4433486;32;20355;-85
2022/08/26 07:11:43;;;;;;;28.60;8.43;;;;;;;;;;4431733;32;20633;-85
2022/08/26 07:16:41;;;;;;;42.40;8.10;;;;;;;;;;4402892;32;20222;-96
2022/08/26 07:19:08;;;;;;;25.17;5.97;;;;;;;;;;4408120;32;20233;-96
2022/08/26 07:21:36;;;;;;;38.60;8.30;;;;;;;;;;4414358;32;20263;-96
2022/08/26 07:24:04;;;;;;;29.20;6.72;;;;;;;;;;4418784;32;20296;-96
2022/08/26 07:26:31;;;;;;;25.27;6.20;;;;;;;;;;4408123;32;20198;-96
2022/08/26 07:29:01;;;;;;;19.40;6.68;;;;;;;;;;4397600;32;20241;-96
2022/08/26 07:31:31;;;;;;;37.78;6.57;;;;;;;;;;4391814;32;20209;-96
2022/08/26 07:34:00;;;;;;;28.77;6.12;;;;;;;;;;4393125;32;20274;-96
2022/08/26 07:36:29;;;;;;;25.15;5.68;;;;;;;;;;4402153;32;20320;-96
2022/08/26 07:38:59;;;;;;;22.67;5.25;;;;;;;;;;4408331;32;20725;-96
2022/08/26 07:41:26;;;;;;;23.33;5.20;;;;;;;;;;4408588;32;20257;-96
2022/08/26 07:43:54;;;;;;;24.80;5.75;;;;;;;;;;4408139;32;20352;-96
2022/08/26 07:46:24;;;;;;;38.47;5.45;;;;;;;;;;4409239;32;20390;-96
2022/08/26 07:48:51;;;;;;;25.17;5.10;;;;;;;;;;4408659;32;20275;-96
2022/08/26 07:51:21;;;;;;;19.90;4.68;;;;;;;;;;4407895;32;20267;-96
2022/08/26 07:53:49;;;;;;;22.90;5.75;;;;;;;;;;4409491;32;20236;-96
2022/08/26 07:56:17;;;;;;;23.83;4.95;;;;;;;;;;4409861;32;20233;-96
2022/08/26 07:58:44;;;;;;;18.75;4.50;;;;;;;;;;4395388;32;20382;-96
2022/08/26 08:01:12;;;;;;;30.08;5.62;;;;;;;;;;4404615;32;20260;-96
2022/08/26 08:03:40;;;;;;;24.05;4.62;;;;;;;;;;4395370;32;20300;-96
2022/08/26 08:06:08;;;;;;;17.27;4.45;;;;;;;;;;4393015;32;20586;-96
2022/08/26 08:08:35;;;;;;;28.62;4.03;;;;;;;;;;4400448;32;20303;-96
2022/08/26 08:11:02;;;;;;;30.30;5.07;;;;;;;;;;4396639;32;20242;-96
2022/08/26 08:13:30;;;;;;;24.50;4.68;;;;;;;;;;4399982;32;20449;-96
2022/08/26 08:15:57;;;;;;;37.00;4.32;;;;;;;;;;4400256;32;20218;-96
2022/08/26 08:18:24;;;;;;;21.08;5.15;;;;;;;;;;4407062;32;20343;-96
2022/08/26 08:20:53;;;;;;;16.62;5.25;;;;;;;;;;4397171;32;20284;-96
2022/08/26 08:23:20;;;;;;;30.02;5.65;;;;;;;;;;4393010;32;20260;-96
2022/08/26 08:25:48;;;;;;;13.40;4.22;;;;;;;;;;4394301;32;20654;-96
2022/08/26 08:28:15;;;;;;;20.55;5.20;;;;;;;;;;4398123;32;20258;-96
2022/08/26 08:30:43;;;;;;;27.20;5.60;;;;;;;;;;4397347;32;20268;-96
2022/08/26 08:33:11;;;;;;;26.20;4.68;;;;;;;;;;4403529;32;20233;-96
2022/08/26 08:35:41;;;;;;;13.82;4.40;;;;;;;;;;4406860;32;20206;-96
2022/08/26 08:38:09;;;;;;;20.05;4.18;;;;;;;;;;4397844;32;20662;-96
2022/08/26 08:40:40;;;;;;;16.90;4.35;;;;;;;;;;4391818;32;20245;-96
2022/08/26 08:43:12;;;;;;;23.80;4.10;;;;;;;;;;4390874;32;20298;-96
2022/08/26 08:45:42;;;;;;;35.45;5.95;;;;;;;;;;4398434;32;20217;-96
2022/08/26 08:48:22;;;;;;;31.90;5.40;;;;;;;;;;4407019;32;20245;-96
2022/08/26 08:50:52;;;;;;;21.75;4.03;;;;;;;;;;4407607;32;20320;-96
2022/08/26 08:53:25;;;;;;;29.98;4.78;;;;;;;;;;4418370;32;20480;-96
2022/08/26 08:56:10;;;;;;;30.25;5.53;;;;;;;;;;4413525;32;20257;-96
2022/08/26 08:58:50;;;;;;;28.98;4.68;;;;;;;;;;4395709;32;20301;-96
2022/08/26 09:01:26;;;;;;;25.98;4.57;;;;;;;;;;4391051;32;20269;-96
2022/08/26 09:04:03;;;;;;;25.40;4.60;;;;;;;;;;4391695;32;20247;-96
2022/08/26 09:06:31;;;;;;;16.60;6.28;;;;;;;;;;4393475;32;20257;-96
2022/08/26 09:09:03;;;;;;;30.80;5.07;;;;;;;;;;4415639;32;20293;-96
2022/08/26 09:11:30;;;;;;;22.50;4.87;;;;;;;;;;4399729;32;20213;-96
2022/08/26 09:13:57;;;;;;;27.02;6.12;;;;;;;;;;4407986;32;20276;-96
2022/08/26 09:16:32;;;;;;;31.95;5.65;;;;;;;;;;4394050;32;20318;-96
2022/08/26 09:19:17;;;;;;;23.12;4.53;;;;;;;;;;4409860;32;20221;-96
2022/08/26 09:21:45;;;;;;;20.85;4.30;;;;;;;;;;4391215;32;20324;-96
2022/08/26 09:24:18;;;;;;;24.00;5.20;;;;;;;;;;4391840;32;20230;-96
2022/08/26 09:26:47;;;;;;;27.50;5.00;;;;;;;;;;4395049;32;20439;-96
2022/08/26 09:29:21;;;;;;;28.50;5.90;;;;;;;;;;4410931;32;20422;-96
2022/08/26 09:31:50;;;;;;;19.80;5.40;;;;;;;;;;4396418;32;20505;-96
2022/08/26 09:34:19;;;;;;;22.00;5.57;;;;;;;;;;4392070;32;20303;-96
2022/08/26 09:36:48;;;;;;;29.33;9.13;;;;;;;;;;4400028;32;20249;-96
2022/08/26 09:39:35;;;;;;;18.05;5.37;;;;;;;;;;4421649;32;20247;-96
2022/08/26 09:42:11;;;;;;;26.48;6.28;;;;;;;;;;4424099;32;20287;-96
2022/08/26 09:44:56;;;;;;;17.08;4.82;;;;;;;;;;4421154;32;20290;-96
2022/08/26 09:47:28;;;;;;;18.08;4.85;;;;;;;;;;4421234;32;20349;-96
2022/08/26 09:50:05;;;;;;;29.30;5.55;;;;;;;;;;4421490;32;20568;-96
2022/08/26 09:52:33;;;;;;;25.58;5.18;;;;;;;;;;4420668;32;20228;-96
2022/08/26 09:55:15;;;;;;;22.50;5.60;;;;;;;;;;4421646;32;20225;-96
2022/08/26 09:57:47;;;;;;;25.62;6.07;;;;;;;;;;4420960;32;20233;-96
2022/08/26 10:00:29;;;;;;;18.15;5.07;;;;;;;;;;4421217;32;20552;-96
2022/08/26 10:02:56;;;;;;;31.40;6.22;;;;;;;;;;4422222;32;20225;-96
2022/08/26 10:05:32;;;;;;;24.67;5.90;;;;;;;;;;4420715;32;20280;-96
2022/08/26 10:08:00;;;;;;;24.05;6.10;;;;;;;;;;4421047;32;20239;-96
2022/08/26 10:10:33;;;;;;;18.98;6.07;;;;;;;;;;4420072;32;20242;-96
2022/08/26 10:13:07;;;;;;;31.42;5.00;;;;;;;;;;4406418;32;20233;-96
2022/08/26 10:15:44;;;;;;;30.85;4.95;;;;;;;;;;4419434;32;20405;-95
2022/08/26 10:18:17;;;;;;;22.52;5.53;;;;;;;;;;4420004;32;20616;-96
2022/08/26 10:20:52;;;;;;;21.27;5.53;;;;;;;;;;4420642;32;20248;-95
2022/08/26 10:23:24;;;;;;;15.27;6.00;;;;;;;;;;4420616;32;20264;-95
2022/08/26 10:25:56;;;;;;;29.48;7.37;;;;;;;;;;4420079;32;20568;-96
2022/08/26 10:28:31;;;;;;;23.75;5.18;;;;;;;;;;4420103;32;20696;-95
2022/08/26 10:31:03;;;;;;;15.75;5.85;;;;;;;;;;4420850;32;20236;-96
2022/08/26 10:33:30;;;;;;;27.67;6.07;;;;;;;;;;4422585;32;20243;-96
2022/08/26 10:36:03;;;;;;;17.02;5.93;;;;;;;;;;4411487;32;20249;-96
2022/08/26 10:38:34;;;;;;;23.73;6.10;;;;;;;;;;4420581;32;20567;-96
2022/08/26 10:41:09;;;;;;;26.15;6.68;;;;;;;;;;4420424;32;20752;-96
2022/08/26 10:43:41;;;;;;;25.27;6.70;;;;;;;;;;4420635;32;20259;-96
2022/08/26 10:46:15;;;;;;;16.52;5.35;;;;;;;;;;4420759;32;20551;-96
2022/08/26 10:48:47;;;;;;;19.25;6.97;;;;;;;;;;4421041;32;20290;-96
2022/08/26 10:51:18;;;;;;;19.73;7.95;;;;;;;;;;4413995;32;20312;-95
2022/08/26 10:53:49;;;;;;;17.65;7.18;;;;;;;;;;4422922;32;20343;-96
2022/08/26 10:56:29;;;;;;;25.55;7.93;;;;;;;;;;4423534;32;20259;-96
2022/08/26 10:59:07;;;;;;;15.85;6.82;;;;;;;;;;4422743;32;20251;-96
2022/08/26 11:01:42;;;;;;;15.73;4.75;;;;;;;;;;4422858;32;20267;-96
2022/08/26 11:04:21;;;;;;;14.13;4.93;;;;;;;;;;4423031;32;20236;-96
2022/08/26 11:06:48;;;;;;;16.92;5.57;;;;;;;;;;4408925;32;20270;-96
2022/08/26 11:09:47;;;;;;;25.05;7.05;;;;;;;;;;4424423;32;20304;-96
2022/08/26 11:12:47;;;;;;;12.05;5.47;;;;;;;;;;4422254;32;20320;-96
2022/08/26 11:16:09;;;;;;;16.05;4.90;;;;;;;;;;4422988;32;20347;-96
2022/08/26 11:18:44;;;;;;;22.60;6.95;;;;;;;;;;4423210;32;20735;-96
2022/08/26 11:21:44;;;;;;;18.20;6.95;;;;;;;;;;4423358;32;20237;-96
2022/08/26 11:24:46;;;;;;;15.88;5.87;;;;;;;;;;4361774;32;20238;-96
2022/08/26 11:27:51;;;;;;;26.85;7.40;;;;;;;;;;4425610;32;20220;-96
2022/08/26 11:30:55;;;;;;;17.37;7.12;;;;;;;;;;4367491;32;20285;-96
2022/08/26 11:33:56;;;;;;;14.15;6.97;;;;;;;;;;4423887;32;20237;-96
2022/08/26 11:36:58;;;;;;;15.68;6.18;;;;;;;;;;4424653;32;20236;-96
2022/08/26 11:39:30;;;;;;;20.27;7.15;;;;;;;;;;4426786;32;20339;-96
2022/08/26 11:42:03;;;;;;;17.33;6.85;;;;;;;;;;4426335;32;20279;-97
2022/08/26 11:44:38;;;;;;;13.85;5.85;;;;;;;;;;4425538;32;20691;-96
2022/08/26 11:47:09;;;;;;;8.93;4.53;;;;;;;;;;4426323;32;20342;-96
2022/08/26 11:49:37;;;;;;;15.65;6.53;;;;;;;;;;4429141;32;20238;-96
2022/08/26 11:52:17;;;;;;;12.60;5.18;;;;;;;;;;4426700;32;20609;-96
2022/08/26 11:55:02;;;;;;;14.57;5.70;;;;;;;;;;4425781;32;20319;-96
2022/08/26 11:57:32;;;;;;;19.80;5.65;;;;;;;;;;4425083;32;20231;-96
2022/08/26 12:00:04;;;;;;;9.88;5.40;;;;;;;;;;4427008;32;20268;-96
2022/08/26 12:02:33;;;;;;;34.17;4.40;;;;;;;;;;4427984;32;20217;-96
2022/08/26 12:05:02;;;;;;;17.67;4.62;;;;;;;;;;4437576;27;20279;-82
2022/08/26 12:07:30;;;;;;;13.82;4.87;;;;;;;;;;4422757;32;20599;-80
2022/08/26 12:09:59;;;;;;;15.57;4.32;;;;;;;;;;4423329;32;20608;-80
2022/08/26 12:12:30;;;;;;;28.62;5.10;;;;;;;;;;4423991;32;20586;-80
2022/08/26 12:15:12;;;;;;;14.48;3.65;;;;;;;;;;4423270;32;20654;-81
2022/08/26 12:17:42;;;;;;;20.40;3.95;;;;;;;;;;4422524;32;20577;-80
2022/08/26 12:20:29;;;;;;;10.63;4.20;;;;;;;;;;4421900;32;20562;-82
2022/08/26 12:22:58;;;;;;;17.65;3.50;;;;;;;;;;4423022;32;20553;-81
2022/08/26 12:25:26;;;;;;;23.92;4.47;;;;;;;;;;4422515;32;20540;-88
2022/08/26 12:27:54;;;;;;;13.68;3.40;;;;;;;;;;4421774;32;20300;-81
2022/08/26 12:30:24;;;;;;;15.52;3.87;;;;;;;;;;4421317;32;20586;-81
2022/08/26 12:33:07;;;;;;;22.45;5.50;;;;;;;;;;4421647;32;21010;-81
2022/08/26 12:35:38;;;;;;;19.45;5.00;;;;;;;;;;4421514;32;20601;-81
2022/08/26 12:38:07;;;;;;;9.77;4.32;;;;;;;;;;4422046;32;20583;-81
2022/08/26 12:40:40;;;;;;;17.45;5.20;;;;;;;;;;4421179;32;20632;-80
2022/08/26 12:43:09;;;;;;;24.00;4.55;;;;;;;;;;4421672;32;20516;-81
2022/08/26 12:45:40;;;;;;;15.75;3.87;;;;;;;;;;4421012;32;20558;-81
2022/08/26 12:48:12;;;;;;;17.08;3.85;;;;;;;;;;4421355;32;20592;-81
2022/08/26 12:50:46;;;;;;;21.80;4.60;;;;;;;;;;4421334;32;20622;-81
2022/08/26 12:53:21;;;;;;;11.82;3.97;;;;;;;;;;4421506;32;20225;-80
2022/08/26 12:55:51;;;;;;;20.42;5.22;;;;;;;;;;4421133;32;20637;-80
2022/08/26 12:58:25;;;;;;;18.02;5.50;;;;;;;;;;4420546;32;20612;-80
2022/08/26 13:00:55;;;;;;;14.82;5.18;;;;;;;;;;4420809;32;20705;-80
2022/08/26 13:03:42;;;;;;;33.88;5.15;;;;;;;;;;4421257;32;20288;-81
2022/08/26 13:06:28;;;;;;;13.75;5.40;;;;;;;;;;4422254;32;20607;-80
2022/08/26 13:08:58;;;;;;;13.88;5.37;;;;;;;;;;4421159;32;20201;-80
2022/08/26 13:11:30;;;;;;;23.85;4.43;;;;;;;;;;4407900;32;20665;-80
2022/08/26 13:14:00;;;;;;;18.17;4.53;;;;;;;;;;4420976;32;20555;-81
2022/08/26 13:16:28;;;;;;;19.27;5.55;;;;;;;;;;4420917;32;20593;-83
2022/08/26 13:19:01;;;;;;;8.70;4.80;;;;;;;;;;4421058;32;20551;-81
2022/08/26 13:21:31;;;;;;;23.50;5.80;;;;;;;;;;4421482;32;20212;-81
2022/08/26 13:24:05;;;;;;;17.27;4.85;;;;;;;;;;4421640;32;20703;-81
2022/08/26 13:26:32;;;;;;;9.55;4.68;;;;;;;;;;4421314;32;20280;-80
2022/08/26 13:29:00;;;;;;;11.40;4.03;;;;;;;;;;4420302;32;20593;-81
2022/08/26 13:31:30;;;;;;;10.98;4.22;;;;;;;;;;4420244;32;20537;-82
2022/08/26 13:33:59;;;;;;;21.20;4.45;;;;;;;;;;4419462;32;20236;-81
2022/08/26 13:36:27;;;;;;;14.55;5.87;;;;;;;;;;4420180;32;20283;-81
2022/08/26 13:38:54;;;;;;;17.50;4.57;;;;;;;;;;4419030;32;20507;-82
2022/08/26 13:41:22;;;;;;;15.68;4.22;;;;;;;;;;4419417;32;20614;-81
2022/08/26 13:43:50;;;;;;;15.27;5.57;;;;;;;;;;4419491;32;20624;-82
2022/08/26 13:46:18;;;;;;;16.70;4.57;;;;;;;;;;4419007;32;20304;-83
2022/08/26 13:48:46;;;;;;;20.20;5.15;;;;;;;;;;4419687;32;20686;-82
2022/08/26 13:51:17;;;;;;;17.70;4.25;;;;;;;;;;4419275;32;20606;-81
2022/08/26 13:53:45;;;;;;;12.98;4.45;;;;;;;;;;4405727;32;20599;-82
2022/08/26 13:56:12;;;;;;;10.93;4.37;;;;;;;;;;4418708;32;20374;-81
2022/08/26 13:58:40;;;;;;;20.67;5.70;;;;;;;;;;4418913;32;20252;-82
2022/08/26 14:01:08;;;;;;;14.00;3.75;;;;;;;;;;4418658;32;20566;-82
2022/08/26 14:03:35;;;;;;;17.58;4.30;;;;;;;;;;4418682;32;20548;-82
2022/08/26 14:06:03;;;;;;;18.05;4.10;;;;;;;;;;4418595;32;20680;-82
2022/08/26 14:08:33;;;;;;;17.50;4.53;;;;;;;;;;4418662;32;20625;-81
2022/08/26 14:11:00;;;;;;;18.08;5.03;;;;;;;;;;4418777;32;20526;-82
2022/08/26 14:13:28;;;;;;;12.93;4.90;;;;;;;;;;4418587;32;20288;-82
2022/08/26 14:15:57;;;;;;;15.30;4.20;;;;;;;;;;4418740;32;20634;-82
2022/08/26 14:18:33;;;;;;;14.55;4.25;;;;;;;;;;4418899;32;20506;-81
2022/08/26 14:21:01;;;;;;;19.90;4.03;;;;;;;;;;4418913;32;20591;-81
2022/08/26 14:23:28;;;;;;;14.48;4.60;;;;;;;;;;4418802;32;20541;-82
2022/08/26 14:25:58;;;;;;;24.87;4.97;;;;;;;;;;4418692;32;20248;-81
2022/08/26 14:28:26;;;;;;;19.83;4.80;;;;;;;;;;4421169;32;20609;-82
2022/08/26 14:30:56;;;;;;;14.57;4.00;;;;;;;;;;4422341;32;20602;-82
2022/08/26 14:33:26;;;;;;;20.48;4.22;;;;;;;;;;4422380;32;20363;-81
2022/08/26 14:36:26;;;;;;;14.70;4.62;;;;;;;;;;4422068;32;20621;-82
2022/08/26 14:38:41;;;;;;;15.98;4.50;;;;;;;;;;4421835;32;20254;-82
2022/08/26 14:41:13;;;;;;;22.27;4.87;;;;;;;;;;4422075;32;20275;-81
2022/08/26 14:43:46;;;;;;;12.68;4.97;;;;;;;;;;4422382;32;20235;-81
2022/08/26 14:46:15;;;;;;;18.20;5.55;;;;;;;;;;4422148;32;20574;-81
2022/08/26 14:48:43;;;;;;;17.70;4.57;;;;;;;;;;4421701;32;20608;-82
2022/08/26 14:51:13;;;;;;;13.70;4.93;;;;;;;;;;4421987;32;20632;-81
2022/08/26 14:56:29;;;;;;;17.80;4.07;;;;;;;;;;4421937;32;20209;-83
2022/08/26 14:58:56;;;;;;;18.33;4.43;;;;;;;;;;4421619;32;20530;-82
2022/08/26 15:01:24;;;;;;;18.00;4.30;;;;;;;;;;4421754;32;20643;-83